sensor_id;sensor_type;location;lat;lon;timestamp;P1;durP1;ratioP1;P2;durP2;ratioP2
20154;SDS011;10238;49.556;10.956;2023-05-10T00:01:33;4.85;;;3.67;;
20154;SDS011;10238;49.556;10.956;2023-05-10T00:04:21;4.03;;;3.63;;
20154;SDS011;10238;49.556;10.956;2023-05-10T00:07:12;4.45;;;3.80;;
20154;SDS011;10238;49.556;10.956;2023-05-10T00:10:02;5.20;;;4.70;;
20154;SDS011;10238;49.556;10.956;2023-05-10T00:12:51;7.47;;;6.72;;
20154;SDS011;10238;49.556;10.956;2023-05-10T00:15:39;6.72;;;6.05;;
20154;SDS011;10238;49.556;10.956;2023-05-10T00:18:28;5.95;;;5.22;;
20154;SDS011;10238;49.556;10.956;2023-05-10T00:21:16;4.38;;;3.80;;
20154;SDS011;10238;49.556;10.956;2023-05-10T00:24:04;7.55;;;6.85;;
20154;SDS011;10238;49.556;10.956;2023-05-10T00:26:54;7.20;;;6.60;;
20154;SDS011;10238;49.556;10.956;2023-05-10T00:29:43;6.95;;;6.35;;
20154;SDS011;10238;49.556;10.956;2023-05-10T00:32:30;6.32;;;5.78;;
20154;SDS011;10238;49.556;10.956;2023-05-10T00:35:20;7.68;;;6.75;;
20154;SDS011;10238;49.556;10.956;2023-05-10T00:38:07;6.60;;;6.00;;
20154;SDS011;10238;49.556;10.956;2023-05-10T00:40:55;5.50;;;5.00;;
20154;SDS011;10238;49.556;10.956;2023-05-10T00:43:43;5.38;;;4.97;;
20154;SDS011;10238;49.556;10.956;2023-05-10T00:46:31;4.80;;;4.35;;
20154;SDS011;10238;49.556;10.956;2023-05-10T00:49:22;4.97;;;4.57;;
20154;SDS011;10238;49.556;10.956;2023-05-10T00:52:12;4.45;;;3.83;;
20154;SDS011;10238;49.556;10.956;2023-05-10T00:55:01;7.90;;;5.75;;
20154;SDS011;10238;49.556;10.956;2023-05-10T00:57:49;5.65;;;5.25;;
20154;SDS011;10238;49.556;10.956;2023-05-10T01:00:38;6.05;;;4.90;;
20154;SDS011;10238;49.556;10.956;2023-05-10T01:03:29;7.90;;;7.20;;
20154;SDS011;10238;49.556;10.956;2023-05-10T01:06:18;6.97;;;6.10;;
20154;SDS011;10238;49.556;10.956;2023-05-10T01:09:07;6.28;;;5.72;;
20154;SDS011;10238;49.556;10.956;2023-05-10T01:11:55;5.07;;;4.72;;
20154;SDS011;10238;49.556;10.956;2023-05-10T01:14:45;6.10;;;5.72;;
20154;SDS011;10238;49.556;10.956;2023-05-10T01:17:33;5.57;;;5.07;;
20154;SDS011;10238;49.556;10.956;2023-05-10T01:20:24;6.10;;;5.63;;
20154;SDS011;10238;49.556;10.956;2023-05-10T01:23:25;5.47;;;5.17;;
20154;SDS011;10238;49.556;10.956;2023-05-10T01:29:55;6.03;;;5.53;;
20154;SDS011;10238;49.556;10.956;2023-05-10T01:33:11;5.85;;;5.35;;
20154;SDS011;10238;49.556;10.956;2023-05-10T01:36:08;6.20;;;5.70;;
20154;SDS011;10238;49.556;10.956;2023-05-10T01:39:02;5.40;;;5.00;;
20154;SDS011;10238;49.556;10.956;2023-05-10T01:41:59;8.40;;;7.53;;
20154;SDS011;10238;49.556;10.956;2023-05-10T01:44:56;7.68;;;6.97;;
20154;SDS011;10238;49.556;10.956;2023-05-10T01:47:50;5.70;;;5.30;;
20154;SDS011;10238;49.556;10.956;2023-05-10T01:50:45;7.57;;;6.97;;
20154;SDS011;10238;49.556;10.956;2023-05-10T01:53:34;7.13;;;6.53;;
20154;SDS011;10238;49.556;10.956;2023-05-10T01:56:26;8.25;;;7.63;;
20154;SDS011;10238;49.556;10.956;2023-05-10T01:59:18;7.30;;;6.68;;
20154;SDS011;10238;49.556;10.956;2023-05-10T02:02:08;5.07;;;4.68;;
20154;SDS011;10238;49.556;10.956;2023-05-10T02:04:58;9.90;;;9.30;;
20154;SDS011;10238;49.556;10.956;2023-05-10T02:07:48;7.20;;;6.80;;
20154;SDS011;10238;49.556;10.956;2023-05-10T02:10:38;8.98;;;8.27;;
20154;SDS011;10238;49.556;10.956;2023-05-10T02:13:27;7.25;;;6.72;;
20154;SDS011;10238;49.556;10.956;2023-05-10T02:16:18;9.57;;;8.98;;
20154;SDS011;10238;49.556;10.956;2023-05-10T02:19:10;13.15;;;12.25;;
20154;SDS011;10238;49.556;10.956;2023-05-10T02:22:00;6.07;;;5.68;;
20154;SDS011;10238;49.556;10.956;2023-05-10T02:24:51;7.78;;;7.38;;
20154;SDS011;10238;49.556;10.956;2023-05-10T02:27:40;7.95;;;7.38;;
20154;SDS011;10238;49.556;10.956;2023-05-10T02:30:31;4.90;;;4.45;;
20154;SDS011;10238;49.556;10.956;2023-05-10T02:33:20;5.20;;;4.80;;
20154;SDS011;10238;49.556;10.956;2023-05-10T02:36:10;9.88;;;9.30;;
20154;SDS011;10238;49.556;10.956;2023-05-10T02:39:00;12.05;;;11.55;;
20154;SDS011;10238;49.556;10.956;2023-05-10T02:41:51;4.38;;;4.07;;
20154;SDS011;10238;49.556;10.956;2023-05-10T02:44:40;6.03;;;5.68;;
20154;SDS011;10238;49.556;10.956;2023-05-10T02:47:29;10.43;;;9.93;;
20154;SDS011;10238;49.556;10.956;2023-05-10T02:50:18;10.18;;;9.68;;
20154;SDS011;10238;49.556;10.956;2023-05-10T02:53:08;8.27;;;7.88;;
20154;SDS011;10238;49.556;10.956;2023-05-10T02:55:58;8.10;;;7.70;;
20154;SDS011;10238;49.556;10.956;2023-05-10T02:58:50;9.82;;;9.38;;
20154;SDS011;10238;49.556;10.956;2023-05-10T03:01:39;9.73;;;9.13;;
20154;SDS011;10238;49.556;10.956;2023-05-10T03:04:26;4.22;;;4.03;;
20154;SDS011;10238;49.556;10.956;2023-05-10T03:07:14;5.72;;;5.43;;
20154;SDS011;10238;49.556;10.956;2023-05-10T03:10:05;8.07;;;7.68;;
20154;SDS011;10238;49.556;10.956;2023-05-10T03:12:57;4.70;;;4.50;;
20154;SDS011;10238;49.556;10.956;2023-05-10T03:15:56;5.47;;;5.18;;
20154;SDS011;10238;49.556;10.956;2023-05-10T03:18:54;5.72;;;5.43;;
20154;SDS011;10238;49.556;10.956;2023-05-10T03:21:49;6.00;;;5.78;;
20154;SDS011;10238;49.556;10.956;2023-05-10T03:24:39;6.10;;;5.80;;
20154;SDS011;10238;49.556;10.956;2023-05-10T03:27:28;6.78;;;6.38;;
20154;SDS011;10238;49.556;10.956;2023-05-10T03:30:18;5.95;;;5.70;;
20154;SDS011;10238;49.556;10.956;2023-05-10T03:33:07;5.97;;;5.68;;
20154;SDS011;10238;49.556;10.956;2023-05-10T03:35:56;7.20;;;6.85;;
20154;SDS011;10238;49.556;10.956;2023-05-10T03:38:44;8.25;;;7.88;;
20154;SDS011;10238;49.556;10.956;2023-05-10T03:41:32;6.25;;;6.05;;
20154;SDS011;10238;49.556;10.956;2023-05-10T03:44:20;13.25;;;12.75;;
20154;SDS011;10238;49.556;10.956;2023-05-10T03:47:08;14.98;;;14.27;;
20154;SDS011;10238;49.556;10.956;2023-05-10T03:49:58;6.15;;;5.85;;
20154;SDS011;10238;49.556;10.956;2023-05-10T03:52:46;14.27;;;13.77;;
20154;SDS011;10238;49.556;10.956;2023-05-10T03:55:33;13.73;;;13.13;;
20154;SDS011;10238;49.556;10.956;2023-05-10T03:58:22;12.73;;;12.23;;
20154;SDS011;10238;49.556;10.956;2023-05-10T04:01:10;13.57;;;13.07;;
20154;SDS011;10238;49.556;10.956;2023-05-10T04:03:57;11.70;;;11.27;;
20154;SDS011;10238;49.556;10.956;2023-05-10T04:06:47;10.60;;;10.05;;
20154;SDS011;10238;49.556;10.956;2023-05-10T04:09:35;10.35;;;9.93;;
20154;SDS011;10238;49.556;10.956;2023-05-10T04:12:23;10.07;;;9.68;;
20154;SDS011;10238;49.556;10.956;2023-05-10T04:15:11;10.82;;;10.38;;
20154;SDS011;10238;49.556;10.956;2023-05-10T04:17:59;4.68;;;4.55;;
20154;SDS011;10238;49.556;10.956;2023-05-10T04:20:47;4.80;;;4.65;;
20154;SDS011;10238;49.556;10.956;2023-05-10T04:23:36;3.35;;;3.25;;
20154;SDS011;10238;49.556;10.956;2023-05-10T04:26:25;3.13;;;3.03;;
20154;SDS011;10238;49.556;10.956;2023-05-10T04:29:12;2.50;;;2.40;;
20154;SDS011;10238;49.556;10.956;2023-05-10T04:32:01;2.38;;;2.28;;
20154;SDS011;10238;49.556;10.956;2023-05-10T04:34:49;2.50;;;2.40;;
20154;SDS011;10238;49.556;10.956;2023-05-10T04:37:37;2.47;;;2.38;;
20154;SDS011;10238;49.556;10.956;2023-05-10T04:40:26;2.50;;;2.40;;
20154;SDS011;10238;49.556;10.956;2023-05-10T04:43:14;2.97;;;2.88;;
20154;SDS011;10238;49.556;10.956;2023-05-10T04:46:02;1.98;;;1.92;;
20154;SDS011;10238;49.556;10.956;2023-05-10T04:48:51;2.03;;;1.92;;
20154;SDS011;10238;49.556;10.956;2023-05-10T04:51:39;1.77;;;1.67;;
20154;SDS011;10238;49.556;10.956;2023-05-10T04:54:27;2.10;;;2.05;;
20154;SDS011;10238;49.556;10.956;2023-05-10T04:57:17;2.78;;;2.67;;
20154;SDS011;10238;49.556;10.956;2023-05-10T05:00:05;3.00;;;2.90;;
20154;SDS011;10238;49.556;10.956;2023-05-10T05:02:53;3.30;;;3.20;;
20154;SDS011;10238;49.556;10.956;2023-05-10T05:05:41;3.00;;;2.85;;
20154;SDS011;10238;49.556;10.956;2023-05-10T05:08:33;3.50;;;3.40;;
20154;SDS011;10238;49.556;10.956;2023-05-10T05:11:21;2.85;;;2.75;;
20154;SDS011;10238;49.556;10.956;2023-05-10T05:14:10;2.80;;;2.70;;
20154;SDS011;10238;49.556;10.956;2023-05-10T05:16:58;2.60;;;2.50;;
20154;SDS011;10238;49.556;10.956;2023-05-10T05:19:46;2.45;;;2.40;;
20154;SDS011;10238;49.556;10.956;2023-05-10T05:22:35;3.63;;;3.53;;
20154;SDS011;10238;49.556;10.956;2023-05-10T05:25:23;2.80;;;2.58;;
20154;SDS011;10238;49.556;10.956;2023-05-10T05:28:11;2.72;;;2.63;;
20154;SDS011;10238;49.556;10.956;2023-05-10T05:31:00;2.85;;;2.75;;
20154;SDS011;10238;49.556;10.956;2023-05-10T05:33:48;2.88;;;2.78;;
20154;SDS011;10238;49.556;10.956;2023-05-10T05:36:37;2.80;;;2.70;;
20154;SDS011;10238;49.556;10.956;2023-05-10T05:39:25;3.08;;;2.97;;
20154;SDS011;10238;49.556;10.956;2023-05-10T05:42:13;2.97;;;2.88;;
20154;SDS011;10238;49.556;10.956;2023-05-10T05:45:02;2.95;;;2.85;;
20154;SDS011;10238;49.556;10.956;2023-05-10T05:47:52;3.35;;;3.25;;
20154;SDS011;10238;49.556;10.956;2023-05-10T05:50:39;3.10;;;3.00;;
20154;SDS011;10238;49.556;10.956;2023-05-10T05:53:27;3.15;;;3.05;;
20154;SDS011;10238;49.556;10.956;2023-05-10T05:56:16;3.72;;;3.20;;
20154;SDS011;10238;49.556;10.956;2023-05-10T05:59:09;3.10;;;3.00;;
20154;SDS011;10238;49.556;10.956;2023-05-10T06:01:57;2.53;;;2.42;;
20154;SDS011;10238;49.556;10.956;2023-05-10T06:04:47;3.03;;;2.92;;
20154;SDS011;10238;49.556;10.956;2023-05-10T06:07:35;2.90;;;2.72;;
20154;SDS011;10238;49.556;10.956;2023-05-10T06:10:23;2.35;;;2.25;;
20154;SDS011;10238;49.556;10.956;2023-05-10T06:13:14;3.13;;;3.03;;
20154;SDS011;10238;49.556;10.956;2023-05-10T06:16:02;2.90;;;2.75;;
20154;SDS011;10238;49.556;10.956;2023-05-10T06:18:50;3.80;;;3.60;;
20154;SDS011;10238;49.556;10.956;2023-05-10T06:21:39;5.85;;;3.40;;
20154;SDS011;10238;49.556;10.956;2023-05-10T06:24:27;2.97;;;2.78;;
20154;SDS011;10238;49.556;10.956;2023-05-10T06:27:15;3.38;;;3.17;;
20154;SDS011;10238;49.556;10.956;2023-05-10T06:30:04;3.28;;;3.17;;
20154;SDS011;10238;49.556;10.956;2023-05-10T06:32:58;3.92;;;3.63;;
20154;SDS011;10238;49.556;10.956;2023-05-10T06:35:45;3.42;;;3.22;;
20154;SDS011;10238;49.556;10.956;2023-05-10T06:38:35;3.50;;;3.20;;
20154;SDS011;10238;49.556;10.956;2023-05-10T06:41:22;3.08;;;2.88;;
20154;SDS011;10238;49.556;10.956;2023-05-10T06:44:10;3.22;;;3.03;;
20154;SDS011;10238;49.556;10.956;2023-05-10T06:46:58;2.90;;;2.80;;
20154;SDS011;10238;49.556;10.956;2023-05-10T06:49:46;2.72;;;2.63;;
20154;SDS011;10238;49.556;10.956;2023-05-10T06:52:34;2.50;;;2.40;;
20154;SDS011;10238;49.556;10.956;2023-05-10T06:55:23;2.92;;;2.80;;
20154;SDS011;10238;49.556;10.956;2023-05-10T06:58:11;3.15;;;2.95;;
20154;SDS011;10238;49.556;10.956;2023-05-10T07:01:03;2.50;;;2.40;;
20154;SDS011;10238;49.556;10.956;2023-05-10T07:03:51;2.90;;;2.72;;
20154;SDS011;10238;49.556;10.956;2023-05-10T07:06:39;2.63;;;2.53;;
20154;SDS011;10238;49.556;10.956;2023-05-10T07:09:27;2.85;;;2.38;;
20154;SDS011;10238;49.556;10.956;2023-05-10T07:12:19;2.10;;;1.83;;
20154;SDS011;10238;49.556;10.956;2023-05-10T07:15:08;1.90;;;1.80;;
20154;SDS011;10238;49.556;10.956;2023-05-10T07:17:56;1.50;;;1.40;;
20154;SDS011;10238;49.556;10.956;2023-05-10T07:20:44;2.97;;;2.78;;
20154;SDS011;10238;49.556;10.956;2023-05-10T07:23:32;7.03;;;6.60;;
20154;SDS011;10238;49.556;10.956;2023-05-10T07:26:20;5.53;;;5.32;;
20154;SDS011;10238;49.556;10.956;2023-05-10T07:29:09;3.88;;;3.67;;
20154;SDS011;10238;49.556;10.956;2023-05-10T07:31:57;4.18;;;3.90;;
20154;SDS011;10238;49.556;10.956;2023-05-10T07:34:45;3.15;;;3.05;;
20154;SDS011;10238;49.556;10.956;2023-05-10T07:37:33;10.63;;;10.23;;
20154;SDS011;10238;49.556;10.956;2023-05-10T07:40:21;12.25;;;11.77;;
20154;SDS011;10238;49.556;10.956;2023-05-10T07:43:09;11.23;;;10.80;;
20154;SDS011;10238;49.556;10.956;2023-05-10T07:45:58;11.55;;;11.05;;
20154;SDS011;10238;49.556;10.956;2023-05-10T07:48:46;13.63;;;13.02;;
20154;SDS011;10238;49.556;10.956;2023-05-10T07:51:34;7.57;;;7.28;;
20154;SDS011;10238;49.556;10.956;2023-05-10T07:54:22;7.35;;;7.03;;
20154;SDS011;10238;49.556;10.956;2023-05-10T07:57:10;8.27;;;7.97;;
20154;SDS011;10238;49.556;10.956;2023-05-10T08:00:00;5.68;;;5.47;;
20154;SDS011;10238;49.556;10.956;2023-05-10T08:02:50;7.57;;;7.28;;
20154;SDS011;10238;49.556;10.956;2023-05-10T08:05:38;8.43;;;8.02;;
20154;SDS011;10238;49.556;10.956;2023-05-10T08:08:26;7.07;;;6.80;;
20154;SDS011;10238;49.556;10.956;2023-05-10T08:11:14;6.82;;;6.57;;
20154;SDS011;10238;49.556;10.956;2023-05-10T08:14:02;6.38;;;6.15;;
20154;SDS011;10238;49.556;10.956;2023-05-10T08:16:50;5.75;;;5.45;;
20154;SDS011;10238;49.556;10.956;2023-05-10T08:19:40;4.57;;;4.30;;
20154;SDS011;10238;49.556;10.956;2023-05-10T08:22:27;4.70;;;4.50;;
20154;SDS011;10238;49.556;10.956;2023-05-10T08:25:15;4.03;;;3.72;;
20154;SDS011;10238;49.556;10.956;2023-05-10T08:28:04;3.08;;;2.97;;
20154;SDS011;10238;49.556;10.956;2023-05-10T08:30:54;3.20;;;3.10;;
20154;SDS011;10238;49.556;10.956;2023-05-10T08:33:42;2.25;;;2.15;;
20154;SDS011;10238;49.556;10.956;2023-05-10T08:36:32;2.13;;;2.00;;
20154;SDS011;10238;49.556;10.956;2023-05-10T08:39:19;1.58;;;1.48;;
20154;SDS011;10238;49.556;10.956;2023-05-10T08:42:15;1.80;;;1.70;;
20154;SDS011;10238;49.556;10.956;2023-05-10T08:45:08;2.55;;;1.50;;
20154;SDS011;10238;49.556;10.956;2023-05-10T08:47:57;2.05;;;1.30;;
20154;SDS011;10238;49.556;10.956;2023-05-10T08:50:46;1.20;;;1.20;;
20154;SDS011;10238;49.556;10.956;2023-05-10T08:53:38;1.50;;;1.40;;
20154;SDS011;10238;49.556;10.956;2023-05-10T08:56:26;2.08;;;1.60;;
20154;SDS011;10238;49.556;10.956;2023-05-10T08:59:14;3.30;;;3.20;;
20154;SDS011;10238;49.556;10.956;2023-05-10T09:02:02;5.05;;;4.85;;
20154;SDS011;10238;49.556;10.956;2023-05-10T09:04:51;4.68;;;4.47;;
20154;SDS011;10238;49.556;10.956;2023-05-10T09:07:40;2.08;;;1.98;;
20154;SDS011;10238;49.556;10.956;2023-05-10T09:10:29;1.50;;;1.50;;
20154;SDS011;10238;49.556;10.956;2023-05-10T09:13:17;4.35;;;2.22;;
20154;SDS011;10238;49.556;10.956;2023-05-10T09:16:07;1.90;;;1.80;;
20154;SDS011;10238;49.556;10.956;2023-05-10T09:19:06;1.58;;;1.48;;
20154;SDS011;10238;49.556;10.956;2023-05-10T09:21:55;1.40;;;1.30;;
20154;SDS011;10238;49.556;10.956;2023-05-10T09:24:43;1.30;;;1.30;;
20154;SDS011;10238;49.556;10.956;2023-05-10T09:27:32;1.83;;;1.75;;
20154;SDS011;10238;49.556;10.956;2023-05-10T09:30:23;2.30;;;2.20;;
20154;SDS011;10238;49.556;10.956;2023-05-10T09:33:12;2.40;;;2.30;;
20154;SDS011;10238;49.556;10.956;2023-05-10T09:36:06;2.90;;;2.70;;
20154;SDS011;10238;49.556;10.956;2023-05-10T09:38:54;4.03;;;3.75;;
20154;SDS011;10238;49.556;10.956;2023-05-10T09:41:42;3.53;;;3.40;;
20154;SDS011;10238;49.556;10.956;2023-05-10T09:44:31;3.72;;;3.53;;
20154;SDS011;10238;49.556;10.956;2023-05-10T09:47:20;3.63;;;3.33;;
20154;SDS011;10238;49.556;10.956;2023-05-10T09:50:08;3.20;;;2.90;;
20154;SDS011;10238;49.556;10.956;2023-05-10T09:52:57;11.85;;;11.35;;
20154;SDS011;10238;49.556;10.956;2023-05-10T09:55:46;5.10;;;4.78;;
20154;SDS011;10238;49.556;10.956;2023-05-10T09:58:36;2.25;;;2.00;;
20154;SDS011;10238;49.556;10.956;2023-05-10T10:01:26;3.85;;;3.65;;
20154;SDS011;10238;49.556;10.956;2023-05-10T10:04:16;4.82;;;4.53;;
20154;SDS011;10238;49.556;10.956;2023-05-10T10:07:06;3.28;;;3.17;;
20154;SDS011;10238;49.556;10.956;2023-05-10T10:09:54;3.45;;;3.25;;
20154;SDS011;10238;49.556;10.956;2023-05-10T10:12:43;2.80;;;2.60;;
20154;SDS011;10238;49.556;10.956;2023-05-10T10:15:31;3.70;;;3.47;;
20154;SDS011;10238;49.556;10.956;2023-05-10T10:18:22;3.25;;;3.05;;
20154;SDS011;10238;49.556;10.956;2023-05-10T10:21:13;2.17;;;2.08;;
20154;SDS011;10238;49.556;10.956;2023-05-10T10:24:01;3.35;;;3.05;;
20154;SDS011;10238;49.556;10.956;2023-05-10T10:26:51;3.63;;;3.35;;
20154;SDS011;10238;49.556;10.956;2023-05-10T10:29:46;2.22;;;1.73;;
20154;SDS011;10238;49.556;10.956;2023-05-10T10:32:42;2.38;;;1.40;;
20154;SDS011;10238;49.556;10.956;2023-05-10T10:36:02;1.58;;;1.48;;
20154;SDS011;10238;49.556;10.956;2023-05-10T10:38:54;1.30;;;1.27;;
20154;SDS011;10238;49.556;10.956;2023-05-10T10:41:49;2.55;;;2.45;;
20154;SDS011;10238;49.556;10.956;2023-05-10T10:44:38;3.60;;;3.40;;
20154;SDS011;10238;49.556;10.956;2023-05-10T10:47:28;3.85;;;3.55;;
20154;SDS011;10238;49.556;10.956;2023-05-10T10:50:19;2.30;;;2.10;;
20154;SDS011;10238;49.556;10.956;2023-05-10T10:53:11;1.80;;;1.70;;
20154;SDS011;10238;49.556;10.956;2023-05-10T10:56:05;2.10;;;2.00;;
20154;SDS011;10238;49.556;10.956;2023-05-10T10:58:58;1.60;;;1.40;;
20154;SDS011;10238;49.556;10.956;2023-05-10T11:01:47;2.10;;;1.90;;
20154;SDS011;10238;49.556;10.956;2023-05-10T11:04:43;2.58;;;2.25;;
20154;SDS011;10238;49.556;10.956;2023-05-10T11:07:32;3.80;;;3.13;;
20154;SDS011;10238;49.556;10.956;2023-05-10T11:10:21;3.47;;;3.10;;
20154;SDS011;10238;49.556;10.956;2023-05-10T11:13:09;3.30;;;3.10;;
20154;SDS011;10238;49.556;10.956;2023-05-10T11:15:57;3.38;;;3.17;;
20154;SDS011;10238;49.556;10.956;2023-05-10T11:19:01;3.13;;;2.92;;
20154;SDS011;10238;49.556;10.956;2023-05-10T11:21:51;3.40;;;3.20;;
20154;SDS011;10238;49.556;10.956;2023-05-10T11:24:58;1.85;;;1.75;;
20154;SDS011;10238;49.556;10.956;2023-05-10T11:27:49;2.38;;;1.80;;
20154;SDS011;10238;49.556;10.956;2023-05-10T11:30:37;1.40;;;1.30;;
20154;SDS011;10238;49.556;10.956;2023-05-10T11:33:26;1.77;;;1.67;;
20154;SDS011;10238;49.556;10.956;2023-05-10T11:36:14;3.25;;;2.25;;
20154;SDS011;10238;49.556;10.956;2023-05-10T11:39:03;2.50;;;2.40;;
20154;SDS011;10238;49.556;10.956;2023-05-10T11:41:52;2.45;;;1.50;;
20154;SDS011;10238;49.556;10.956;2023-05-10T11:44:41;1.55;;;1.35;;
20154;SDS011;10238;49.556;10.956;2023-05-10T11:47:31;1.40;;;1.30;;
20154;SDS011;10238;49.556;10.956;2023-05-10T11:50:21;1.63;;;1.60;;
20154;SDS011;10238;49.556;10.956;2023-05-10T11:53:08;1.95;;;1.73;;
20154;SDS011;10238;49.556;10.956;2023-05-10T11:56:02;2.33;;;2.22;;
20154;SDS011;10238;49.556;10.956;2023-05-10T11:58:52;2.50;;;2.40;;
20154;SDS011;10238;49.556;10.956;2023-05-10T12:01:43;2.17;;;2.08;;
20154;SDS011;10238;49.556;10.956;2023-05-10T12:04:31;1.77;;;1.67;;
20154;SDS011;10238;49.556;10.956;2023-05-10T12:07:19;1.20;;;1.20;;
20154;SDS011;10238;49.556;10.956;2023-05-10T12:10:08;1.67;;;1.30;;
20154;SDS011;10238;49.556;10.956;2023-05-10T12:13:00;1.58;;;1.48;;
20154;SDS011;10238;49.556;10.956;2023-05-10T12:15:48;3.15;;;1.40;;
20154;SDS011;10238;49.556;10.956;2023-05-10T12:18:37;1.83;;;1.40;;
20154;SDS011;10238;49.556;10.956;2023-05-10T12:21:27;1.63;;;1.52;;
20154;SDS011;10238;49.556;10.956;2023-05-10T12:24:17;1.88;;;1.50;;
20154;SDS011;10238;49.556;10.956;2023-05-10T12:27:07;1.20;;;1.20;;
20154;SDS011;10238;49.556;10.956;2023-05-10T12:29:58;2.15;;;2.00;;
20154;SDS011;10238;49.556;10.956;2023-05-10T12:32:47;1.65;;;1.63;;
20154;SDS011;10238;49.556;10.956;2023-05-10T12:35:44;1.60;;;1.50;;
20154;SDS011;10238;49.556;10.956;2023-05-10T12:38:33;1.45;;;1.45;;
20154;SDS011;10238;49.556;10.956;2023-05-10T12:41:23;1.33;;;1.20;;
20154;SDS011;10238;49.556;10.956;2023-05-10T12:44:11;1.83;;;1.70;;
20154;SDS011;10238;49.556;10.956;2023-05-10T12:46:59;2.80;;;1.50;;
20154;SDS011;10238;49.556;10.956;2023-05-10T12:49:47;1.60;;;1.50;;
20154;SDS011;10238;49.556;10.956;2023-05-10T12:52:38;2.20;;;1.20;;
20154;SDS011;10238;49.556;10.956;2023-05-10T12:55:25;1.40;;;1.35;;
20154;SDS011;10238;49.556;10.956;2023-05-10T12:58:13;1.17;;;1.17;;
20154;SDS011;10238;49.556;10.956;2023-05-10T13:01:20;2.50;;;1.30;;
20154;SDS011;10238;49.556;10.956;2023-05-10T13:04:07;1.35;;;1.30;;
20154;SDS011;10238;49.556;10.956;2023-05-10T13:06:56;1.80;;;1.77;;
20154;SDS011;10238;49.556;10.956;2023-05-10T13:09:46;1.92;;;1.83;;
20154;SDS011;10238;49.556;10.956;2023-05-10T13:12:33;2.33;;;2.13;;
20154;SDS011;10238;49.556;10.956;2023-05-10T13:15:22;2.25;;;2.15;;
20154;SDS011;10238;49.556;10.956;2023-05-10T13:18:10;2.33;;;2.22;;
20154;SDS011;10238;49.556;10.956;2023-05-10T13:20:58;2.30;;;2.20;;
20154;SDS011;10238;49.556;10.956;2023-05-10T13:23:46;2.42;;;2.33;;
20154;SDS011;10238;49.556;10.956;2023-05-10T13:26:35;2.95;;;2.85;;
20154;SDS011;10238;49.556;10.956;2023-05-10T13:29:23;4.07;;;3.90;;
20154;SDS011;10238;49.556;10.956;2023-05-10T13:32:11;4.85;;;4.45;;
20154;SDS011;10238;49.556;10.956;2023-05-10T13:34:59;4.18;;;3.88;;
20154;SDS011;10238;49.556;10.956;2023-05-10T13:37:52;5.28;;;5.07;;
20154;SDS011;10238;49.556;10.956;2023-05-10T13:40:42;5.60;;;5.40;;
20154;SDS011;10238;49.556;10.956;2023-05-10T13:43:32;4.28;;;4.03;;
20154;SDS011;10238;49.556;10.956;2023-05-10T13:46:20;3.95;;;3.75;;
20154;SDS011;10238;49.556;10.956;2023-05-10T13:49:08;2.70;;;2.50;;
20154;SDS011;10238;49.556;10.956;2023-05-10T13:51:56;2.13;;;2.03;;
20154;SDS011;10238;49.556;10.956;2023-05-10T13:54:44;1.80;;;1.70;;
20154;SDS011;10238;49.556;10.956;2023-05-10T13:57:32;2.08;;;1.50;;
20154;SDS011;10238;49.556;10.956;2023-05-10T14:00:22;1.58;;;1.48;;
20154;SDS011;10238;49.556;10.956;2023-05-10T14:03:10;1.30;;;1.20;;
20154;SDS011;10238;49.556;10.956;2023-05-10T14:05:58;1.60;;;1.50;;
20154;SDS011;10238;49.556;10.956;2023-05-10T14:08:46;2.67;;;1.80;;
20154;SDS011;10238;49.556;10.956;2023-05-10T14:11:34;3.00;;;1.90;;
20154;SDS011;10238;49.556;10.956;2023-05-10T14:14:22;1.90;;;1.80;;
20154;SDS011;10238;49.556;10.956;2023-05-10T14:17:11;1.92;;;1.80;;
20154;SDS011;10238;49.556;10.956;2023-05-10T14:19:59;1.60;;;1.50;;
20154;SDS011;10238;49.556;10.956;2023-05-10T14:22:47;2.35;;;1.70;;
20154;SDS011;10238;49.556;10.956;2023-05-10T14:25:35;2.70;;;2.00;;
20154;SDS011;10238;49.556;10.956;2023-05-10T14:28:23;2.00;;;1.80;;
20154;SDS011;10238;49.556;10.956;2023-05-10T14:31:12;2.22;;;2.03;;
20154;SDS011;10238;49.556;10.956;2023-05-10T14:34:04;1.67;;;1.58;;
20154;SDS011;10238;49.556;10.956;2023-05-10T14:36:52;1.83;;;1.73;;
20154;SDS011;10238;49.556;10.956;2023-05-10T14:39:40;2.47;;;1.67;;
20154;SDS011;10238;49.556;10.956;2023-05-10T14:42:28;1.90;;;1.80;;
20154;SDS011;10238;49.556;10.956;2023-05-10T14:45:17;2.72;;;1.67;;
20154;SDS011;10238;49.556;10.956;2023-05-10T14:48:05;2.28;;;1.65;;
20154;SDS011;10238;49.556;10.956;2023-05-10T14:50:58;2.40;;;1.73;;
20154;SDS011;10238;49.556;10.956;2023-05-10T14:53:46;2.00;;;1.88;;
20154;SDS011;10238;49.556;10.956;2023-05-10T14:56:34;1.83;;;1.73;;
20154;SDS011;10238;49.556;10.956;2023-05-10T14:59:23;1.50;;;1.40;;
20154;SDS011;10238;49.556;10.956;2023-05-10T15:02:11;1.30;;;1.30;;
20154;SDS011;10238;49.556;10.956;2023-05-10T15:04:59;1.67;;;1.60;;
20154;SDS011;10238;49.556;10.956;2023-05-10T15:07:49;2.15;;;1.60;;
20154;SDS011;10238;49.556;10.956;2023-05-10T15:10:37;1.80;;;1.60;;
20154;SDS011;10238;49.556;10.956;2023-05-10T15:13:25;1.38;;;1.38;;
20154;SDS011;10238;49.556;10.956;2023-05-10T15:16:13;1.38;;;1.38;;
20154;SDS011;10238;49.556;10.956;2023-05-10T15:19:01;1.27;;;1.20;;
20154;SDS011;10238;49.556;10.956;2023-05-10T15:21:49;1.58;;;1.35;;
20154;SDS011;10238;49.556;10.956;2023-05-10T15:24:38;1.42;;;1.33;;
20154;SDS011;10238;49.556;10.956;2023-05-10T15:27:26;1.52;;;1.50;;
20154;SDS011;10238;49.556;10.956;2023-05-10T15:30:14;1.50;;;1.40;;
20154;SDS011;10238;49.556;10.956;2023-05-10T15:33:02;1.30;;;1.30;;
20154;SDS011;10238;49.556;10.956;2023-05-10T15:35:50;1.30;;;1.13;;
20154;SDS011;10238;49.556;10.956;2023-05-10T15:38:39;1.77;;;1.60;;
20154;SDS011;10238;49.556;10.956;2023-05-10T15:41:29;2.05;;;1.58;;
20154;SDS011;10238;49.556;10.956;2023-05-10T15:44:16;1.67;;;1.55;;
20154;SDS011;10238;49.556;10.956;2023-05-10T15:47:04;1.60;;;1.50;;
20154;SDS011;10238;49.556;10.956;2023-05-10T15:49:52;1.80;;;1.20;;
20154;SDS011;10238;49.556;10.956;2023-05-10T15:52:40;3.22;;;1.80;;
20154;SDS011;10238;49.556;10.956;2023-05-10T15:55:28;2.92;;;2.17;;
20154;SDS011;10238;49.556;10.956;2023-05-10T15:58:18;3.20;;;1.90;;
20154;SDS011;10238;49.556;10.956;2023-05-10T16:01:06;2.63;;;2.53;;
20154;SDS011;10238;49.556;10.956;2023-05-10T16:03:54;5.35;;;5.05;;
20154;SDS011;10238;49.556;10.956;2023-05-10T16:06:42;5.47;;;5.15;;
20154;SDS011;10238;49.556;10.956;2023-05-10T16:09:30;3.75;;;3.55;;
20154;SDS011;10238;49.556;10.956;2023-05-10T16:12:18;4.05;;;3.85;;
20154;SDS011;10238;49.556;10.956;2023-05-10T16:15:08;2.70;;;2.50;;
20154;SDS011;10238;49.556;10.956;2023-05-10T16:17:56;3.58;;;3.40;;
20154;SDS011;10238;49.556;10.956;2023-05-10T16:20:44;4.22;;;3.97;;
20154;SDS011;10238;49.556;10.956;2023-05-10T16:23:32;3.67;;;3.50;;
20154;SDS011;10238;49.556;10.956;2023-05-10T16:26:20;4.30;;;4.10;;
20154;SDS011;10238;49.556;10.956;2023-05-10T16:29:08;4.85;;;4.65;;
20154;SDS011;10238;49.556;10.956;2023-05-10T16:31:58;4.55;;;4.35;;
20154;SDS011;10238;49.556;10.956;2023-05-10T16:34:46;3.30;;;3.13;;
20154;SDS011;10238;49.556;10.956;2023-05-10T16:37:34;3.40;;;3.10;;
20154;SDS011;10238;49.556;10.956;2023-05-10T16:40:22;4.18;;;3.40;;
20154;SDS011;10238;49.556;10.956;2023-05-10T16:43:10;5.03;;;2.67;;
20154;SDS011;10238;49.556;10.956;2023-05-10T16:45:58;2.53;;;2.42;;
20154;SDS011;10238;49.556;10.956;2023-05-10T16:48:48;2.20;;;2.10;;